Time;durP1;ratioP1;P1;durP2;ratioP2;P2;SDS_P1;SDS_P2;PMS_P1;PMS_P2;Temp;Humidity;BMP_temperature;BMP_pressure;BME280_temperature;BME280_humidity;BME280_pressure;Samples;Min_cycle;Max_cycle;Signal;HPM_P1;HPM_P2
2021/05/21 00:01:00;;;;;;;3.20;2.22;;;;;;;13.83;100.00;100271.80;1726406;83;20960;-81
2021/05/21 00:03:26;;;;;;;3.20;1.90;;;;;;;13.84;100.00;100263.12;1726500;81;21080;-81
2021/05/21 00:05:52;;;;;;;6.75;2.42;;;;;;;13.70;100.00;100263.55;1726414;81;20857;-82
2021/05/21 00:08:18;;;;;;;4.47;2.00;;;;;;;13.88;100.00;100264.69;1756781;80;20949;-81
2021/05/21 00:10:44;;;;;;;5.30;2.20;;;;;;;13.76;100.00;100259.69;1756710;81;20964;-81
2021/05/21 00:13:10;;;;;;;13.75;2.70;;;;;;;13.71;100.00;100263.28;1756626;81;21084;-82
2021/05/21 00:15:36;;;;;;;3.95;2.22;;;;;;;13.68;100.00;100263.86;1756602;80;21666;-82
2021/05/21 00:18:02;;;;;;;4.80;2.60;;;;;;;13.61;100.00;100264.18;1756818;80;20893;-82
2021/05/21 00:20:28;;;;;;;4.03;2.33;;;;;;;13.68;100.00;100258.96;1752314;81;21049;-82
2021/05/21 00:22:54;;;;;;;4.60;2.47;;;;;;;13.70;100.00;100262.20;1756702;81;21154;-82
2021/05/21 00:25:20;;;;;;;3.58;2.10;;;;;;;13.66;100.00;100259.82;1730785;81;21043;-82
2021/05/21 00:27:46;;;;;;;9.25;2.40;;;;;;;13.62;100.00;100251.48;1750810;81;21008;-81
2021/05/21 00:30:14;;;;;;;3.92;2.12;;;;;;;13.69;100.00;100247.05;1735668;80;20980;-82
2021/05/21 00:32:40;;;;;;;3.77;2.12;;;;;;;13.62;100.00;100245.50;1746036;82;21048;-82
2021/05/21 00:35:07;;;;;;;7.33;2.00;;;;;;;13.71;100.00;100247.03;1757502;80;21230;-82
2021/05/21 00:37:32;;;;;;;7.30;2.37;;;;;;;13.62;100.00;100252.27;1757456;81;21562;-82
2021/05/21 00:39:58;;;;;;;6.67;2.27;;;;;;;13.71;100.00;100262.48;1757259;81;21639;-82
2021/05/21 00:42:24;;;;;;;5.67;2.27;;;;;;;13.81;100.00;100266.41;1757539;81;20854;-83
2021/05/21 00:44:57;;;;;;;6.65;2.40;;;;;;;13.60;100.00;100265.28;1757421;81;20917;-82
2021/05/21 00:47:25;;;;;;;5.62;2.33;;;;;;;13.69;100.00;100268.72;1757652;81;26797;-83
2021/05/21 00:49:51;;;;;;;5.65;2.10;;;;;;;13.54;100.00;100253.45;1757343;81;21065;-83
2021/05/21 00:52:18;;;;;;;8.63;2.60;;;;;;;13.50;100.00;100254.58;1757531;81;21009;-82
2021/05/21 00:54:46;;;;;;;3.72;1.95;;;;;;;13.39;100.00;100253.87;1757213;81;21064;-83
2021/05/21 00:57:12;;;;;;;5.28;2.00;;;;;;;13.47;100.00;100238.92;1757387;81;21042;-83
2021/05/21 00:59:38;;;;;;;6.85;2.00;;;;;;;13.40;100.00;100236.53;1757512;81;21750;-83
2021/05/21 01:02:08;;;;;;;6.87;2.22;;;;;;;13.43;100.00;100245.18;1757327;81;21426;-82
2021/05/21 01:04:36;;;;;;;4.58;1.95;;;;;;;13.47;100.00;100242.98;1757494;81;21049;-83
2021/05/21 01:07:05;;;;;;;3.33;2.27;;;;;;;13.36;100.00;100249.59;1757516;81;21052;-83
2021/05/21 01:09:31;;;;;;;5.12;2.30;;;;;;;13.36;100.00;100244.98;1696707;84;21492;-82
2021/05/21 01:11:57;;;;;;;4.75;1.90;;;;;;;13.28;100.00;100244.24;1729692;82;21110;-83
2021/05/21 01:14:23;;;;;;;3.17;2.30;;;;;;;13.32;100.00;100239.86;1729471;82;20960;-82
2021/05/21 01:16:49;;;;;;;7.47;1.82;;;;;;;13.25;100.00;100241.28;1729529;82;21434;-82
2021/05/21 01:19:15;;;;;;;7.97;1.95;;;;;;;13.17;100.00;100242.14;1729615;82;21009;-82
2021/05/21 01:21:41;;;;;;;4.67;1.62;;;;;;;13.10;100.00;100240.88;1729457;82;21013;-83
2021/05/21 01:24:09;;;;;;;6.65;1.82;;;;;;;13.12;100.00;100240.06;1729686;82;21129;-82
2021/05/21 01:26:37;;;;;;;8.65;1.77;;;;;;;13.04;100.00;100233.36;1729629;82;21060;-82
2021/05/21 01:29:06;;;;;;;3.90;1.65;;;;;;;13.08;100.00;100226.83;1729683;82;21032;-82
2021/05/21 01:31:34;;;;;;;3.75;1.85;;;;;;;13.12;100.00;100238.70;1752815;81;21710;-82
2021/05/21 01:34:00;;;;;;;3.60;1.50;;;;;;;13.14;100.00;100241.36;1755849;81;21667;-82
2021/05/21 01:36:26;;;;;;;7.90;1.52;;;;;;;13.03;100.00;100241.74;1755514;80;21178;-82
2021/05/21 01:38:59;;;;;;;2.65;1.50;;;;;;;13.08;100.00;100246.56;1755626;81;21060;-82
2021/05/21 01:41:28;;;;;;;3.90;1.30;;;;;;;13.06;100.00;100251.47;1723017;83;21062;-82
2021/05/21 01:43:56;;;;;;;4.70;1.02;;;;;;;13.05;100.00;100249.84;1722991;83;21047;-82
2021/05/21 01:46:22;;;;;;;3.20;1.20;;;;;;;13.08;100.00;100248.47;1722941;83;21122;-82
2021/05/21 01:48:48;;;;;;;4.03;1.12;;;;;;;13.00;100.00;100243.66;1722850;83;21165;-84
2021/05/21 01:51:15;;;;;;;3.37;1.15;;;;;;;12.96;100.00;100242.08;1723053;83;21002;-83
2021/05/21 01:53:41;;;;;;;2.22;1.20;;;;;;;12.96;100.00;100244.78;1722926;83;21095;-82
2021/05/21 01:56:08;;;;;;;7.53;1.05;;;;;;;12.96;100.00;100252.90;1722895;83;21594;-82
2021/05/21 01:58:34;;;;;;;3.00;0.93;;;;;;;12.87;100.00;100245.94;1723026;83;21039;-84
2021/05/21 02:01:00;;;;;;;2.58;1.02;;;;;;;12.87;100.00;100245.94;1723099;83;21112;-82
2021/05/21 02:03:29;;;;;;;2.45;1.02;;;;;;;12.87;100.00;100253.25;1722903;83;21053;-82
2021/05/21 02:05:55;;;;;;;2.33;0.90;;;;;;;12.82;100.00;100250.59;1738165;80;21025;-82
2021/05/21 02:08:25;;;;;;;2.33;1.02;;;;;;;12.80;100.00;100248.73;1750447;80;22336;-82
2021/05/21 02:10:53;;;;;;;3.80;1.02;;;;;;;12.83;100.00;100253.56;1713849;83;21063;-82
2021/05/21 02:13:20;;;;;;;2.17;1.10;;;;;;;12.82;100.00;100249.23;1695111;84;21154;-82
2021/05/21 02:15:46;;;;;;;1.60;1.00;;;;;;;12.75;100.00;100256.32;1695105;84;21599;-82
2021/05/21 02:18:14;;;;;;;1.95;0.90;;;;;;;12.79;100.00;100252.50;1694938;84;21060;-82
2021/05/21 02:20:41;;;;;;;2.75;1.47;;;;;;;12.79;100.00;100255.20;1695127;84;21067;-82
2021/05/21 02:23:08;;;;;;;4.37;1.17;;;;;;;12.80;100.00;100250.88;1695394;84;21043;-82
2021/05/21 02:25:34;;;;;;;3.00;0.88;;;;;;;12.81;100.00;100247.63;1695177;84;21107;-81
2021/05/21 02:28:00;;;;;;;1.60;0.80;;;;;;;12.67;100.00;100245.55;1702072;83;21560;-82
2021/05/21 02:30:27;;;;;;;1.87;0.90;;;;;;;12.70;100.00;100250.39;1724170;83;21473;-82
2021/05/21 02:32:54;;;;;;;3.12;0.80;;;;;;;12.67;100.00;100248.26;1724309;83;21103;-82
2021/05/21 02:35:21;;;;;;;2.02;0.90;;;;;;;12.71;100.00;100252.58;1724635;83;21067;-82
2021/05/21 02:37:47;;;;;;;2.65;1.07;;;;;;;12.72;100.00;100259.05;1721124;83;21800;-81
2021/05/21 02:40:14;;;;;;;4.92;1.07;;;;;;;12.69;100.00;100249.34;1712580;83;20914;-82
2021/05/21 02:42:40;;;;;;;0.70;0.60;;;;;;;12.76;100.00;100249.02;1712574;83;21591;-82
2021/05/21 02:45:08;;;;;;;2.42;0.85;;;;;;;12.73;100.00;100251.22;1712660;83;21055;-82
2021/05/21 02:47:34;;;;;;;1.30;0.90;;;;;;;12.73;100.00;100244.97;1712769;83;21566;-82
2021/05/21 02:50:00;;;;;;;2.58;0.98;;;;;;;12.79;100.00;100244.39;1712808;83;21054;-82
2021/05/21 02:52:27;;;;;;;4.03;0.70;;;;;;;12.82;100.00;100241.12;1712540;82;21051;-82
2021/05/21 02:54:53;;;;;;;1.15;0.70;;;;;;;12.88;100.00;100238.62;1701227;83;21070;-83
2021/05/21 02:57:23;;;;;;;4.42;1.00;;;;;;;12.88;100.00;100231.88;1685376;83;21153;-82
2021/05/21 02:59:46;;;;;;;3.98;0.85;;;;;;;12.98;100.00;100218.82;1712442;83;21083;-82
2021/05/21 03:02:12;;;;;;;8.13;0.72;;;;;;;12.83;100.00;100221.92;1712792;83;20967;-83
2021/05/21 03:04:38;;;;;;;3.40;0.95;;;;;;;12.89;100.00;100207.81;1712609;83;20837;-82
2021/05/21 03:07:04;;;;;;;3.75;0.93;;;;;;;13.13;100.00;100205.14;1721869;81;20897;-82
2021/05/21 03:09:30;;;;;;;1.80;0.90;;;;;;;13.13;100.00;100198.38;1773550;77;21542;-82
2021/05/21 03:11:56;;;;;;;3.80;1.07;;;;;;;13.17;100.00;100199.41;1822399;77;20973;-83
2021/05/21 03:14:22;;;;;;;6.90;1.00;;;;;;;13.36;100.00;100203.58;1814659;79;22010;-82
2021/05/21 03:16:47;;;;;;;3.27;0.78;;;;;;;13.48;100.00;100199.11;1814814;79;20942;-83
2021/05/21 03:19:13;;;;;;;1.45;0.88;;;;;;;13.81;100.00;100204.11;1814700;79;20907;-83
2021/05/21 03:21:39;;;;;;;1.42;0.65;;;;;;;13.88;100.00;100220.00;1814887;78;21575;-83
2021/05/21 03:24:07;;;;;;;3.85;0.80;;;;;;;14.01;100.00;100199.77;1814911;79;20934;-83
2021/05/21 03:26:33;;;;;;;0.60;0.50;;;;;;;14.04;100.00;100199.19;1814874;79;21089;-83
2021/05/21 03:28:59;;;;;;;2.37;0.60;;;;;;;13.88;100.00;100200.48;1814717;79;20870;-83
2021/05/21 03:31:25;;;;;;;2.20;0.90;;;;;;;13.70;100.00;100204.78;1804343;79;20895;-82
2021/05/21 03:33:51;;;;;;;0.93;0.40;;;;;;;13.54;100.00;100191.98;1813974;78;21091;-83
2021/05/21 03:36:18;;;;;;;2.15;0.90;;;;;;;13.53;100.00;100195.80;1831051;78;22395;-83
2021/05/21 03:38:43;;;;;;;3.75;1.00;;;;;;;13.42;100.00;100196.21;1825168;77;21046;-83
2021/05/21 03:41:11;;;;;;;7.97;0.70;;;;;;;13.43;100.00;100198.61;1802775;78;21578;-83
2021/05/21 03:43:37;;;;;;;4.03;0.70;;;;;;;13.67;100.00;100209.97;1812139;77;21086;-83
2021/05/21 03:46:03;;;;;;;3.80;0.80;;;;;;;13.98;100.00;100228.01;1809521;78;21569;-83
2021/05/21 03:48:30;;;;;;;2.45;0.80;;;;;;;14.05;100.00;100209.47;1812353;78;21102;-83
2021/05/21 03:50:56;;;;;;;1.87;0.70;;;;;;;14.53;100.00;100210.16;1805622;78;21112;-86
2021/05/21 03:53:22;;;;;;;1.22;0.70;;;;;;;14.64;100.00;100214.84;1806222;77;21562;-83
2021/05/21 03:55:48;;;;;;;4.67;0.80;;;;;;;14.92;100.00;100210.31;1831116;77;20895;-84
2021/05/21 03:58:14;;;;;;;1.57;0.70;;;;;;;15.07;100.00;100205.16;1804790;78;21628;-83
2021/05/21 04:00:40;;;;;;;3.40;0.90;;;;;;;14.81;100.00;100202.09;1813768;77;21126;-83
2021/05/21 04:03:07;;;;;;;2.33;0.70;;;;;;;14.92;100.00;100210.88;1816152;78;21733;-83
2021/05/21 04:05:34;;;;;;;5.42;1.12;;;;;;;14.42;100.00;100216.00;1814250;78;21007;-82
2021/05/21 04:08:00;;;;;;;0.88;0.50;;;;;;;14.62;100.00;100218.95;1814948;77;21006;-82
2021/05/21 04:10:26;;;;;;;8.70;0.70;;;;;;;14.66;100.00;100216.72;1811538;77;21046;-83
2021/05/21 04:12:53;;;;;;;1.55;0.75;;;;;;;14.47;100.00;100219.44;1798317;79;21021;-82
2021/05/21 04:15:19;;;;;;;1.30;0.90;;;;;;;14.87;100.00;100230.75;1755475;79;21673;-83
2021/05/21 04:17:45;;;;;;;4.85;0.62;;;;;;;14.67;100.00;100233.23;1798287;78;21101;-83
2021/05/21 04:20:13;;;;;;;1.05;0.70;;;;;;;14.42;100.00;100236.33;1798460;78;20832;-82
2021/05/21 04:22:40;;;;;;;0.65;0.60;;;;;;;14.54;100.00;100243.49;1741441;81;21074;-83
2021/05/21 04:25:07;;;;;;;1.60;0.82;;;;;;;14.56;100.00;100244.53;1755412;81;20987;-83
2021/05/21 04:27:33;;;;;;;3.35;0.75;;;;;;;14.37;100.00;100252.66;1755720;81;21068;-83
2021/05/21 04:29:59;;;;;;;1.57;0.62;;;;;;;14.30;100.00;100248.97;1755584;81;20960;-83
2021/05/21 04:32:25;;;;;;;2.08;0.50;;;;;;;14.30;100.00;100253.04;1745828;80;21261;-82
2021/05/21 04:34:51;;;;;;;4.08;0.50;;;;;;;14.07;100.00;100249.28;1745175;82;21504;-82
2021/05/21 04:37:17;;;;;;;1.82;0.57;;;;;;;14.29;100.00;100260.89;1745055;82;21005;-82
2021/05/21 04:39:43;;;;;;;2.20;0.50;;;;;;;14.30;100.00;100258.46;1719946;82;21244;-82
2021/05/21 04:42:09;;;;;;;3.67;0.53;;;;;;;14.63;100.00;100251.77;1744919;82;21663;-83
2021/05/21 04:44:35;;;;;;;1.80;0.50;;;;;;;14.15;100.00;100267.61;1744701;82;21068;-85
2021/05/21 04:47:01;;;;;;;3.40;0.50;;;;;;;14.16;100.00;100252.15;1744964;82;20944;-83
2021/05/21 04:49:34;;;;;;;2.25;0.40;;;;;;;14.02;100.00;100261.54;1745086;82;21124;-84
2021/05/21 04:52:07;;;;;;;4.55;0.68;;;;;;;14.25;100.00;100272.88;1745327;82;21153;-84
2021/05/21 04:54:34;;;;;;;3.58;0.70;;;;;;;14.06;100.00;100269.36;1824338;78;21038;-83
2021/05/21 04:57:00;;;;;;;2.83;0.60;;;;;;;14.18;100.00;100273.80;1837078;78;21019;-84
2021/05/21 04:59:27;;;;;;;3.42;0.53;;;;;;;14.34;100.00;100281.16;1809196;78;21555;-84
2021/05/21 05:01:53;;;;;;;2.83;0.53;;;;;;;14.35;100.00;100285.47;1839206;78;20991;-87
2021/05/21 05:04:19;;;;;;;0.50;0.40;;;;;;;14.36;100.00;100284.95;1817674;78;21102;-84
2021/05/21 05:06:47;;;;;;;1.95;0.40;;;;;;;14.35;100.00;100285.47;1839131;78;21543;-84
2021/05/21 05:09:14;;;;;;;0.82;0.42;;;;;;;14.45;100.00;100286.70;1839531;76;21028;-85
2021/05/21 05:11:42;;;;;;;0.82;0.47;;;;;;;14.73;100.00;100285.50;1850248;77;20996;-82
2021/05/21 05:14:10;;;;;;;0.60;0.40;;;;;;;14.53;100.00;100289.34;1847775;76;21037;-84
2021/05/21 05:16:38;;;;;;;2.95;0.70;;;;;;;14.47;100.00;100285.87;1821278;77;21117;-83
2021/05/21 05:19:05;;;;;;;0.57;0.47;;;;;;;14.75;100.00;100280.04;1816428;79;20993;-83
2021/05/21 05:21:41;;;;;;;0.50;0.40;;;;;;;14.83;100.00;100280.48;1816612;79;21150;-83
2021/05/21 05:24:17;;;;;;;1.52;0.40;;;;;;;14.71;100.00;100280.39;1813659;79;21025;-84
2021/05/21 05:26:44;;;;;;;0.53;0.40;;;;;;;14.50;100.00;100282.57;1697576;83;21120;-83
2021/05/21 05:29:10;;;;;;;0.98;0.40;;;;;;;14.43;100.00;100292.16;1683729;83;21135;-83
2021/05/21 05:31:38;;;;;;;1.17;0.50;;;;;;;14.48;100.00;100302.38;1663810;84;21000;-83
2021/05/21 05:34:05;;;;;;;1.82;0.40;;;;;;;14.74;100.00;100283.06;1666824;84;21149;-83
2021/05/21 05:36:32;;;;;;;0.45;0.30;;;;;;;14.53;100.00;100281.21;1673123;84;21036;-82
2021/05/21 05:38:58;;;;;;;1.05;0.53;;;;;;;14.53;100.00;100278.50;1673076;85;20983;-82
2021/05/21 05:41:24;;;;;;;1.25;0.40;;;;;;;14.70;100.00;100281.47;1673182;85;21059;-83
2021/05/21 05:43:50;;;;;;;1.02;0.50;;;;;;;14.86;100.00;100279.34;1647551;85;21105;-82
2021/05/21 05:46:16;;;;;;;2.80;0.45;;;;;;;14.79;100.00;100280.25;1673088;85;21054;-82
2021/05/21 05:48:42;;;;;;;1.02;0.30;;;;;;;14.67;100.00;100288.84;1673013;84;20962;-84
2021/05/21 05:51:08;;;;;;;1.00;0.30;;;;;;;14.49;100.00;100286.36;1673207;85;20993;-83
2021/05/21 05:53:36;;;;;;;0.75;0.40;;;;;;;14.34;100.00;100285.23;1647860;85;21138;-84
2021/05/21 05:56:06;;;;;;;1.95;0.70;;;;;;;14.39;100.00;100283.01;1673086;85;21602;-84
2021/05/21 05:58:32;;;;;;;5.15;0.50;;;;;;;14.51;100.00;100284.73;1673205;85;21046;-83
2021/05/21 06:00:59;;;;;;;1.77;0.40;;;;;;;14.52;100.00;100288.52;1673003;84;21174;-84
2021/05/21 06:03:28;;;;;;;0.50;0.20;;;;;;;14.52;100.00;100291.23;1681968;83;21075;-84
2021/05/21 06:05:54;;;;;;;0.80;0.47;;;;;;;14.49;100.00;100290.43;1722494;83;21031;-85
2021/05/21 06:08:20;;;;;;;2.90;0.50;;;;;;;14.49;100.00;100290.43;1722680;81;20908;-85
2021/05/21 06:10:46;;;;;;;1.20;0.33;;;;;;;14.64;100.00;100285.91;1718722;83;21098;-84
2021/05/21 06:13:12;;;;;;;1.57;0.35;;;;;;;14.66;100.00;100286.44;1722484;81;21058;-84
2021/05/21 06:15:39;;;;;;;1.55;0.33;;;;;;;14.58;100.00;100295.23;1722513;81;20911;-85
2021/05/21 06:18:06;;;;;;;0.20;0.10;;;;;;;14.70;100.00;100299.09;1722805;83;21119;-86
2021/05/21 06:20:34;;;;;;;0.70;0.40;;;;;;;14.75;100.00;100296.31;1722661;83;21063;-83
2021/05/21 06:23:03;;;;;;;0.20;0.13;;;;;;;14.90;100.00;100284.97;1747339;79;20988;-84
2021/05/21 06:28:22;;;;;;;1.75;0.20;;;;;;;15.12;100.00;100293.85;1795922;79;21602;-85
2021/05/21 06:30:47;;;;;;;0.20;0.20;;;;;;;15.12;100.00;100295.20;1796006;78;21044;-84
2021/05/21 06:33:13;;;;;;;1.07;0.20;;;;;;;15.35;100.00;100300.21;1806218;79;21051;-83
2021/05/21 06:35:39;;;;;;;5.53;0.40;;;;;;;15.76;100.00;100293.50;1806518;79;21027;-85
2021/05/21 06:38:06;;;;;;;0.55;0.30;;;;;;;15.40;100.00;100296.86;1806342;79;21527;-84
2021/05/21 06:40:32;;;;;;;1.32;0.30;;;;;;;15.59;100.00;100298.16;1806314;78;20994;-84
2021/05/21 06:42:58;;;;;;;2.52;0.30;;;;;;;15.99;100.00;100297.67;1806417;79;21066;-84
2021/05/21 06:45:25;;;;;;;2.67;0.40;;;;;;;16.20;100.00;100298.05;1761528;79;21005;-84
2021/05/21 06:47:51;;;;;;;0.50;0.25;;;;;;;16.01;100.00;100311.22;1801365;79;21050;-83
2021/05/21 06:50:17;;;;;;;1.55;0.50;;;;;;;15.88;100.00;100301.14;1806299;79;20896;-84
2021/05/21 06:52:42;;;;;;;3.80;0.30;;;;;;;16.17;100.00;100307.62;1806398;78;21644;-82
2021/05/21 06:55:10;;;;;;;1.17;0.40;;;;;;;16.41;99.86;100309.29;1806230;78;21162;-86
2021/05/21 06:57:36;;;;;;;0.68;0.47;;;;;;;15.96;97.82;100315.95;1806335;79;21069;-85
2021/05/21 07:00:04;;;;;;;0.20;0.10;;;;;;;15.97;99.79;100320.27;1806384;79;21581;-85
2021/05/21 07:02:30;;;;;;;2.50;0.10;;;;;;;15.86;97.75;100321.84;1806319;79;21569;-83
2021/05/21 07:04:56;;;;;;;0.50;0.20;;;;;;;15.56;96.38;100325.92;1806308;79;21218;-84
2021/05/21 07:07:25;;;;;;;0.20;0.20;;;;;;;15.67;95.92;100330.59;1806348;79;21051;-83
2021/05/21 07:09:51;;;;;;;0.40;0.30;;;;;;;15.50;95.04;100330.36;1806090;79;21631;-84
2021/05/21 07:12:17;;;;;;;2.30;0.20;;;;;;;15.53;98.54;100332.48;1806486;79;21070;-84
2021/05/21 07:14:43;;;;;;;3.30;0.30;;;;;;;15.84;98.71;100333.56;1806466;78;20989;-84
2021/05/21 07:17:09;;;;;;;1.98;0.20;;;;;;;15.79;90.57;100334.20;1806364;79;21011;-84
2021/05/21 07:19:35;;;;;;;1.65;0.10;;;;;;;15.63;95.54;100333.67;1806323;79;21095;-85
2021/05/21 07:22:04;;;;;;;2.47;0.20;;;;;;;15.94;90.30;100341.26;1806297;79;20967;-85
2021/05/21 07:24:30;;;;;;;0.20;0.20;;;;;;;15.55;90.70;100346.58;1806295;79;21542;-85
2021/05/21 07:26:57;;;;;;;6.22;1.62;;;;;;;15.58;91.46;100344.06;1806356;79;20900;-84
2021/05/21 07:29:22;;;;;;;5.45;1.47;;;;;;;15.90;90.96;100342.42;1806270;78;21042;-84
2021/05/21 07:31:49;;;;;;;6.45;1.82;;;;;;;15.77;90.35;100352.19;1806221;79;21079;-84
2021/05/21 07:34:15;;;;;;;2.45;1.35;;;;;;;15.86;86.99;100354.45;1806301;79;21512;-83
2021/05/21 07:36:40;;;;;;;1.65;0.30;;;;;;;15.89;86.53;100353.05;1806367;79;20963;-85
2021/05/21 07:39:07;;;;;;;0.42;0.30;;;;;;;15.76;90.20;100355.98;1806100;78;20927;-85
2021/05/21 07:41:33;;;;;;;1.45;0.30;;;;;;;16.06;88.58;100357.86;1770809;79;22209;-85
2021/05/21 07:43:59;;;;;;;1.25;0.45;;;;;;;16.15;84.02;100361.52;1770886;81;21075;-85
2021/05/21 07:46:26;;;;;;;0.62;0.42;;;;;;;16.17;86.81;100355.75;1770819;81;21002;-85
2021/05/21 07:48:54;;;;;;;0.98;0.30;;;;;;;16.56;85.40;100352.50;1770779;81;21536;-85
2021/05/21 07:51:21;;;;;;;0.78;0.20;;;;;;;16.54;85.09;100354.16;1770916;81;21505;-84
2021/05/21 07:53:48;;;;;;;0.80;0.40;;;;;;;16.06;83.24;100359.22;1770800;81;21380;-85
2021/05/21 07:56:14;;;;;;;0.35;0.20;;;;;;;16.11;94.99;100357.77;1771040;81;21111;-85
2021/05/21 07:58:41;;;;;;;0.82;0.42;;;;;;;16.60;94.00;100357.56;1770740;81;21094;-85
2021/05/21 08:01:07;;;;;;;0.70;0.33;;;;;;;17.20;89.66;100361.92;1770809;81;21036;-85
2021/05/21 08:03:34;;;;;;;2.20;0.60;;;;;;;17.40;87.05;100359.25;1770882;81;21540;-85
2021/05/21 08:06:01;;;;;;;1.65;0.50;;;;;;;17.17;83.92;100370.15;1785839;79;21082;-84
2021/05/21 08:08:28;;;;;;;1.07;0.40;;;;;;;17.27;82.47;100376.48;1806285;79;21111;-85
2021/05/21 08:10:56;;;;;;;3.80;0.80;;;;;;;17.21;83.67;100371.16;1806272;79;21074;-84
2021/05/21 08:13:23;;;;;;;3.85;0.78;;;;;;;16.78;82.10;100367.52;1806348;78;20960;-84
2021/05/21 08:15:50;;;;;;;6.03;0.65;;;;;;;16.73;87.70;100374.41;1806270;79;21039;-84
2021/05/21 08:18:18;;;;;;;0.42;0.42;;;;;;;17.00;88.70;100374.09;1806275;79;21054;-85
2021/05/21 08:20:44;;;;;;;0.95;0.50;;;;;;;17.33;86.31;100372.52;1806402;79;21090;-84
2021/05/21 08:23:14;;;;;;;1.75;0.30;;;;;;;17.52;84.44;100377.19;1806261;79;21431;-83
2021/05/21 08:25:41;;;;;;;1.10;0.42;;;;;;;17.36;78.00;100385.52;1806449;78;21034;-84
2021/05/21 08:28:07;;;;;;;3.40;0.33;;;;;;;17.81;82.55;100378.66;1806379;79;21046;-84
2021/05/21 08:30:33;;;;;;;1.37;0.60;;;;;;;17.86;80.54;100378.53;1806530;79;21073;-84
2021/05/21 08:32:59;;;;;;;3.15;0.70;;;;;;;17.67;83.82;100384.16;1809469;77;21107;-84
2021/05/21 08:35:25;;;;;;;1.25;0.88;;;;;;;17.48;78.39;100387.91;1812114;79;20946;-84
2021/05/21 08:37:52;;;;;;;3.17;0.60;;;;;;;16.96;83.03;100392.17;1812025;79;21082;-84
2021/05/21 08:40:26;;;;;;;1.30;0.47;;;;;;;17.20;85.66;100393.23;1812126;79;21019;-84
2021/05/21 08:42:58;;;;;;;0.30;0.30;;;;;;;16.97;80.84;100393.77;1811982;78;21093;-84
2021/05/21 08:45:28;;;;;;;0.50;0.42;;;;;;;17.47;79.45;100389.57;1761015;81;21774;-84
2021/05/21 08:47:54;;;;;;;1.10;0.40;;;;;;;17.02;82.28;100401.83;1761133;81;21141;-84
2021/05/21 08:50:20;;;;;;;1.02;0.40;;;;;;;16.98;85.60;100396.77;1761459;81;20988;-85
2021/05/21 08:52:48;;;;;;;0.80;0.50;;;;;;;16.97;83.34;100395.96;1735877;81;20881;-83
2021/05/21 08:55:15;;;;;;;1.95;0.50;;;;;;;16.68;86.12;100399.03;1761249;81;21747;-84
2021/05/21 08:57:42;;;;;;;3.67;0.40;;;;;;;17.17;86.74;100398.73;1761240;81;21338;-84
2021/05/21 09:00:10;;;;;;;0.60;0.33;;;;;;;17.59;83.72;100408.08;1760943;81;21052;-83
2021/05/21 09:02:37;;;;;;;0.90;0.30;;;;;;;18.26;85.64;100401.12;1761464;81;21035;-83
2021/05/21 09:05:07;;;;;;;1.20;0.20;;;;;;;18.89;77.28;100400.42;1761223;81;21079;-86
2021/05/21 09:07:38;;;;;;;2.60;0.53;;;;;;;18.78;75.94;100401.28;1761311;80;21091;-82
2021/05/21 09:10:19;;;;;;;2.17;0.30;;;;;;;18.83;73.93;100393.52;1760760;81;21147;-83
2021/05/21 09:12:48;;;;;;;1.95;0.50;;;;;;;18.74;70.35;100408.52;1735697;81;21100;-82
2021/05/21 09:15:22;;;;;;;0.80;0.50;;;;;;;18.24;67.25;100426.58;1761146;80;21040;-82
2021/05/21 09:18:02;;;;;;;0.55;0.40;;;;;;;18.63;69.23;100412.64;1761117;80;21219;-82
2021/05/21 09:20:36;;;;;;;1.20;0.37;;;;;;;19.45;72.06;100406.81;1761198;81;21075;-84
2021/05/21 09:23:13;;;;;;;0.40;0.40;;;;;;;18.64;65.30;100406.05;1704004;84;21773;-82
2021/05/21 09:25:49;;;;;;;0.93;0.40;;;;;;;18.35;68.23;100401.16;1666773;86;21586;-83
2021/05/21 09:28:41;;;;;;;2.60;0.40;;;;;;;18.83;68.62;100408.53;1666962;86;21626;-83
2021/05/21 09:31:14;;;;;;;2.83;0.40;;;;;;;19.18;64.53;100406.61;1581704;90;21118;-83
2021/05/21 09:33:44;;;;;;;2.30;0.68;;;;;;;19.20;67.74;100401.61;1537449;93;21841;-82
2021/05/21 09:36:12;;;;;;;1.60;0.60;;;;;;;19.14;67.04;100406.20;1538357;93;21153;-82
2021/05/21 09:38:47;;;;;;;0.90;0.40;;;;;;;19.49;63.10;100399.56;1538236;93;21051;-85
2021/05/21 09:41:13;;;;;;;2.40;0.33;;;;;;;19.67;66.86;100399.56;1536682;93;21104;-85
2021/05/21 09:43:39;;;;;;;3.20;0.60;;;;;;;21.18;65.82;100392.05;1523837;94;20966;-85
2021/05/21 09:46:10;;;;;;;0.93;0.40;;;;;;;21.96;63.23;100399.47;1523930;94;21136;-84
2021/05/21 09:48:37;;;;;;;1.32;0.40;;;;;;;22.62;59.91;100393.56;1524003;93;21191;-84
2021/05/21 09:51:05;;;;;;;0.72;0.55;;;;;;;23.22;55.65;100387.66;1524017;94;21197;-83
2021/05/21 09:53:33;;;;;;;2.98;0.40;;;;;;;22.77;52.96;100394.78;1524012;94;21137;-84
2021/05/21 09:56:13;;;;;;;2.75;0.37;;;;;;;22.93;50.73;100394.27;1524134;93;21161;-84
2021/05/21 09:58:44;;;;;;;2.05;0.40;;;;;;;21.51;54.00;100398.94;1472964;97;21710;-84
2021/05/21 10:01:24;;;;;;;0.75;0.30;;;;;;;21.64;56.21;100407.19;1473220;97;21401;-84
2021/05/21 10:03:57;;;;;;;1.87;0.50;;;;;;;20.75;54.99;100402.78;1473034;97;21039;-84
2021/05/21 10:06:26;;;;;;;0.35;0.23;;;;;;;20.56;60.15;100397.77;1473292;97;21212;-85
2021/05/21 10:08:58;;;;;;;3.20;0.50;;;;;;;21.37;61.45;100397.63;1473009;96;21703;-85
2021/05/21 10:11:25;;;;;;;2.30;0.50;;;;;;;21.23;57.59;100396.51;1473221;96;21137;-85
2021/05/21 10:13:52;;;;;;;3.02;0.53;;;;;;;22.28;60.02;100390.72;1473068;97;21300;-85
2021/05/21 10:16:20;;;;;;;0.80;0.30;;;;;;;22.73;51.38;100400.15;1454526;97;21610;-85
2021/05/21 10:18:51;;;;;;;1.55;0.60;;;;;;;23.23;53.33;100399.45;1472923;97;21163;-85
2021/05/21 10:21:20;;;;;;;0.80;0.50;;;;;;;23.40;52.04;100403.86;1489467;94;21137;-85
2021/05/21 10:24:05;;;;;;;2.80;0.37;;;;;;;21.50;53.36;100402.00;1557736;92;21153;-85
2021/05/21 10:26:38;;;;;;;3.60;0.40;;;;;;;21.51;56.49;100407.73;1559247;92;21978;-85
2021/05/21 10:29:22;;;;;;;1.23;0.40;;;;;;;21.67;54.95;100402.39;1674653;85;21043;-84
2021/05/21 10:31:52;;;;;;;0.82;0.37;;;;;;;22.24;53.37;100404.34;1710698;83;21024;-85
2021/05/21 10:34:21;;;;;;;0.50;0.33;;;;;;;21.99;54.56;100407.02;1713933;82;21120;-85
2021/05/21 10:36:49;;;;;;;0.72;0.30;;;;;;;21.38;55.24;100401.97;1790418;79;21559;-85
2021/05/21 10:39:21;;;;;;;0.65;0.50;;;;;;;21.13;57.55;100404.59;1812393;79;21001;-86
2021/05/21 10:41:59;;;;;;;2.25;0.30;;;;;;;21.93;56.58;100402.11;1812297;79;21058;-85
2021/05/21 10:44:28;;;;;;;2.52;0.40;;;;;;;21.21;56.12;100406.45;1812177;79;21590;-84
2021/05/21 10:47:24;;;;;;;1.47;0.78;;;;;;;20.77;60.41;100396.98;1812369;78;21095;-83
2021/05/21 10:50:05;;;;;;;1.20;0.42;;;;;;;20.76;59.76;100395.36;1812328;78;21053;-83
2021/05/21 10:52:56;;;;;;;1.90;0.60;;;;;;;20.91;58.97;100404.34;1812225;79;21849;-83
2021/05/21 10:55:54;;;;;;;0.88;0.62;;;;;;;21.16;60.27;100405.86;1812240;79;21097;-83
2021/05/21 10:58:31;;;;;;;1.37;0.93;;;;;;;21.35;60.34;100401.23;1812310;79;21018;-83
2021/05/21 11:01:20;;;;;;;0.98;0.82;;;;;;;21.11;60.40;100404.11;1812205;79;21022;-83
2021/05/21 11:04:03;;;;;;;1.15;0.82;;;;;;;20.62;62.60;100397.80;1662561;86;21109;-83
2021/05/21 11:06:44;;;;;;;1.67;0.42;;;;;;;20.76;60.46;100393.98;1663117;85;21822;-84
2021/05/21 11:09:19;;;;;;;1.77;0.50;;;;;;;21.37;60.70;100389.41;1662983;86;21116;-83
2021/05/21 11:11:53;;;;;;;5.97;0.60;;;;;;;21.95;57.84;100391.59;1637690;87;21534;-83
2021/05/21 11:14:37;;;;;;;0.70;0.50;;;;;;;22.09;57.53;100394.81;1637649;87;21154;-83
2021/05/21 11:17:26;;;;;;;1.25;0.45;;;;;;;22.26;55.45;100393.00;1554513;92;21630;-83
2021/05/21 11:20:00;;;;;;;1.47;0.30;;;;;;;22.32;56.30;100392.42;1529775;92;21146;-83
2021/05/21 11:22:31;;;;;;;1.62;0.40;;;;;;;22.77;53.59;100394.20;1527996;92;21160;-84
2021/05/21 11:25:07;;;;;;;0.82;0.25;;;;;;;22.27;53.57;100389.92;1527925;93;21175;-83
2021/05/21 11:27:36;;;;;;;6.45;0.60;;;;;;;22.37;55.65;100396.89;1528040;93;21075;-83